Time;durP1;ratioP1;P1;durP2;ratioP2;P2;SDS_P1;SDS_P2;PMS_P1;PMS_P2;Temp;Humidity;BMP_temperature;BMP_pressure;BME280_temperature;BME280_humidity;BME280_pressure;Samples;Min_cycle;Max_cycle;Signal;HPM_P1;HPM_P2
2023/03/13 00:01:35;;;;;;;17.93;11.13;;;;;;;2.41;63.31;94872.72;6214843;23;20233;-86
2023/03/13 00:04:03;;;;;;;18.20;10.67;;;;;;;2.46;62.82;94867.09;6215932;23;20567;-82
2023/03/13 00:06:33;;;;;;;18.57;10.87;;;;;;;2.39;62.29;94858.47;6213984;23;20177;-84
2023/03/13 00:09:00;;;;;;;17.97;10.47;;;;;;;2.52;62.30;94869.00;6213236;23;20701;-82
2023/03/13 00:11:27;;;;;;;17.80;10.27;;;;;;;2.53;62.46;94876.53;6213349;23;20197;-82
2023/03/13 00:13:54;;;;;;;19.20;9.57;;;;;;;2.58;61.83;94876.84;6213529;23;20166;-82
2023/03/13 00:16:21;;;;;;;14.83;8.90;;;;;;;2.61;60.85;94875.72;6213784;23;20571;-82
2023/03/13 00:18:50;;;;;;;15.07;8.83;;;;;;;2.53;61.54;94878.31;6213347;23;20178;-79
2023/03/13 00:21:18;;;;;;;17.70;9.23;;;;;;;2.44;61.64;94880.09;6213877;23;20169;-79
2023/03/13 00:23:47;;;;;;;15.73;9.30;;;;;;;2.41;62.08;94874.47;6211827;23;20170;-79
2023/03/13 00:26:15;;;;;;;14.13;8.50;;;;;;;2.27;61.80;94873.38;6212431;23;20232;-78
2023/03/13 00:28:43;;;;;;;11.53;7.47;;;;;;;2.13;62.31;94874.03;6212064;23;20630;-77
2023/03/13 00:31:12;;;;;;;11.43;7.57;;;;;;;2.04;62.51;94883.47;6211937;23;20197;-78
2023/03/13 00:33:40;;;;;;;9.13;6.53;;;;;;;1.85;62.95;94875.31;6212995;23;20174;-78
2023/03/13 00:36:09;;;;;;;9.63;6.63;;;;;;;1.74;63.21;94878.97;6211924;23;20182;-79
2023/03/13 00:38:37;;;;;;;8.97;6.50;;;;;;;1.66;63.69;94878.97;6212429;23;20169;-79
2023/03/13 00:41:07;;;;;;;8.30;6.40;;;;;;;1.54;64.33;94870.78;6213096;23;20170;-79
2023/03/13 00:43:41;;;;;;;8.73;6.37;;;;;;;1.48;64.61;94862.91;6212098;23;20509;-79
2023/03/13 00:46:19;;;;;;;8.10;5.60;;;;;;;1.66;64.41;94879.75;6211755;23;20249;-79
2023/03/13 00:48:53;;;;;;;9.23;6.27;;;;;;;1.55;64.43;94872.41;6212517;23;20543;-80
2023/03/13 00:51:22;;;;;;;9.17;6.17;;;;;;;1.59;64.29;94881.34;6211495;23;20186;-79
2023/03/13 00:53:49;;;;;;;8.73;6.13;;;;;;;1.58;64.11;94882.31;6211994;23;20166;-79
2023/03/13 00:56:19;;;;;;;10.77;6.47;;;;;;;1.51;64.33;94873.66;6212132;23;20170;-80
2023/03/13 00:58:47;;;;;;;9.07;6.27;;;;;;;1.56;63.95;94880.84;6213420;23;20679;-80
2023/03/13 01:01:16;;;;;;;10.77;6.60;;;;;;;1.60;64.53;94872.72;6212265;23;20175;-80
2023/03/13 01:03:45;;;;;;;12.93;8.00;;;;;;;1.61;64.20;94874.31;6211590;23;20170;-79
2023/03/13 01:06:14;;;;;;;12.73;8.27;;;;;;;1.67;63.56;94878.00;6211862;23;20258;-78
2023/03/13 01:08:41;;;;;;;16.20;8.60;;;;;;;1.71;63.71;94874.97;6212631;23;20176;-78
2023/03/13 01:11:10;;;;;;;14.43;8.90;;;;;;;1.73;63.66;94868.91;6211709;23;20193;-79
2023/03/13 01:13:38;;;;;;;15.10;9.40;;;;;;;1.73;63.85;94864.56;6212056;23;20288;-79
2023/03/13 01:16:08;;;;;;;13.63;8.60;;;;;;;1.76;63.75;94869.34;6214809;23;20165;-79
2023/03/13 01:18:35;;;;;;;16.80;9.20;;;;;;;1.88;62.71;94874.97;6211789;23;20166;-79
2023/03/13 01:21:03;;;;;;;16.77;8.33;;;;;;;1.87;62.94;94869.06;6211476;23;20652;-78
2023/03/13 01:23:29;;;;;;;16.07;8.40;;;;;;;1.95;63.03;94876.75;6211978;23;20228;-78
2023/03/13 01:25:57;;;;;;;15.37;9.20;;;;;;;2.03;62.09;94884.44;6211014;23;20162;-79
2023/03/13 01:28:25;;;;;;;17.37;9.20;;;;;;;1.92;62.59;94869.38;6210941;23;20562;-78
2023/03/13 01:30:53;;;;;;;15.83;9.50;;;;;;;2.05;61.90;94890.19;6212315;23;20657;-86
2023/03/13 01:33:20;;;;;;;18.53;10.27;;;;;;;2.09;62.01;94888.91;6213049;23;20191;-86
2023/03/13 01:35:46;;;;;;;14.60;9.50;;;;;;;2.14;62.61;94891.00;6214607;23;20162;-85
2023/03/13 01:38:13;;;;;;;15.20;9.90;;;;;;;2.09;62.38;94899.16;6212983;23;20166;-87
2023/03/13 01:40:41;;;;;;;15.37;9.27;;;;;;;2.05;62.71;94897.88;6212505;23;20165;-85
2023/03/13 01:43:19;;;;;;;14.50;8.90;;;;;;;2.03;62.59;94891.31;6212463;23;20170;-85
2023/03/13 01:46:03;;;;;;;14.00;7.90;;;;;;;1.97;63.00;94892.75;6212665;23;20154;-85
2023/03/13 01:48:36;;;;;;;12.70;8.00;;;;;;;1.99;63.93;94901.06;6212759;23;20212;-84
2023/03/13 01:51:08;;;;;;;14.50;8.10;;;;;;;1.95;64.01;94893.88;6212083;23;20583;-84
2023/03/13 01:53:36;;;;;;;13.83;9.07;;;;;;;1.99;64.91;94895.19;6213312;23;20162;-85
2023/03/13 01:56:08;;;;;;;14.87;8.40;;;;;;;1.96;63.66;94893.75;6214548;23;20166;-85
2023/03/13 01:58:36;;;;;;;14.50;8.10;;;;;;;1.87;64.39;94888.75;6212280;23;20704;-87
2023/03/13 02:01:05;;;;;;;13.03;8.07;;;;;;;1.80;65.43;94905.72;6213420;23;20197;-87
2023/03/13 02:03:34;;;;;;;12.77;8.00;;;;;;;1.76;66.03;94900.09;6212820;23;20166;-85
2023/03/13 02:06:02;;;;;;;11.40;7.50;;;;;;;1.58;66.71;94889.19;6212658;23;20170;-86
2023/03/13 02:08:34;;;;;;;10.43;6.80;;;;;;;1.49;68.47;94888.38;6212375;23;20180;-86
2023/03/13 02:11:07;;;;;;;10.37;6.33;;;;;;;1.31;70.78;94892.00;6211951;23;20179;-86
2023/03/13 02:13:34;;;;;;;10.07;6.37;;;;;;;1.25;72.06;94901.09;6213535;23;20158;-86
2023/03/13 02:16:01;;;;;;;9.60;6.67;;;;;;;1.23;72.43;94903.03;6217326;23;20180;-86
2023/03/13 02:18:30;;;;;;;11.07;7.00;;;;;;;1.25;73.08;94905.41;6212511;23;20173;-86
2023/03/13 02:21:05;;;;;;;12.77;8.13;;;;;;;1.22;74.99;94892.94;6212802;23;20560;-80
2023/03/13 02:23:39;;;;;;;11.67;7.37;;;;;;;1.35;74.51;94912.03;6212564;23;20576;-86
2023/03/13 02:26:07;;;;;;;12.53;8.07;;;;;;;1.36;73.82;94912.81;6213311;23;20161;-86
2023/03/13 02:28:38;;;;;;;14.03;8.27;;;;;;;1.44;73.93;94912.84;6212817;23;20173;-85
2023/03/13 02:31:06;;;;;;;11.77;7.67;;;;;;;1.49;73.88;94919.09;6212367;23;20175;-85
2023/03/13 02:33:37;;;;;;;15.47;8.70;;;;;;;1.56;74.07;94924.38;6216151;23;20663;-86
2023/03/13 02:36:05;;;;;;;13.37;8.10;;;;;;;1.58;74.48;94927.59;6213424;23;20161;-87
2023/03/13 02:38:35;;;;;;;11.40;8.10;;;;;;;1.60;73.74;94928.25;6213978;23;20169;-88
2023/03/13 02:41:04;;;;;;;15.77;8.53;;;;;;;1.48;73.68;94922.59;6214031;23;20178;-87
2023/03/13 02:43:34;;;;;;;13.37;8.73;;;;;;;1.59;73.87;94942.81;6213304;23;20170;-87
2023/03/13 02:46:04;;;;;;;18.60;9.53;;;;;;;1.51;74.32;94931.75;6215889;23;20180;-86
2023/03/13 02:48:33;;;;;;;17.43;10.27;;;;;;;1.56;74.91;94949.97;6218852;23;20919;-87
2023/03/13 02:51:02;;;;;;;18.33;10.37;;;;;;;1.56;74.88;94953.34;6215223;23;20256;-87
2023/03/13 02:53:29;;;;;;;17.90;10.17;;;;;;;1.57;73.80;94954.16;6216056;23;20174;-86
2023/03/13 02:55:56;;;;;;;15.37;8.77;;;;;;;1.55;73.55;94956.09;6214698;23;20244;-87
2023/03/13 02:58:24;;;;;;;12.23;7.90;;;;;;;1.46;73.56;94957.81;6214909;23;20201;-86
2023/03/13 03:00:52;;;;;;;10.93;7.83;;;;;;;1.44;72.72;94946.94;6215418;23;20232;-89
2023/03/13 03:03:19;;;;;;;12.37;7.00;;;;;;;1.53;72.97;94961.34;6224690;23;20170;-88
2023/03/13 03:05:46;;;;;;;13.63;7.50;;;;;;;1.44;72.68;94946.94;6215464;23;20174;-88
2023/03/13 03:08:13;;;;;;;11.43;7.67;;;;;;;1.51;72.83;94954.78;6215025;23;20637;-90
2023/03/13 03:10:40;;;;;;;12.60;7.60;;;;;;;1.35;73.93;94949.63;6214960;23;20173;-88
2023/03/13 03:13:06;;;;;;;13.27;8.13;;;;;;;1.45;73.44;94960.50;6214952;23;20232;-88
2023/03/13 03:15:33;;;;;;;12.33;8.60;;;;;;;1.50;73.17;94973.69;6214765;23;20166;-85
2023/03/13 03:18:01;;;;;;;12.77;8.30;;;;;;;1.38;74.02;94974.91;6214687;23;20170;-85
2023/03/13 03:20:28;;;;;;;15.23;8.37;;;;;;;1.35;73.76;94978.59;6215719;23;20188;-85
2023/03/13 03:22:55;;;;;;;12.87;8.30;;;;;;;1.34;73.79;94996.63;6214377;23;20167;-87
2023/03/13 03:25:22;;;;;;;15.30;8.33;;;;;;;1.34;75.21;95001.75;6214277;23;20551;-86
2023/03/13 03:27:48;;;;;;;14.20;8.97;;;;;;;1.23;76.12;95000.28;6214875;23;20174;-85
2023/03/13 03:30:15;;;;;;;14.63;8.57;;;;;;;1.23;75.55;95002.84;6213928;23;20561;-85
2023/03/13 03:32:42;;;;;;;20.23;9.63;;;;;;;1.23;75.65;94992.59;6214009;23;20188;-84
2023/03/13 03:35:11;;;;;;;13.67;8.70;;;;;;;1.06;76.44;94975.56;6213816;23;20181;-86
2023/03/13 03:37:37;;;;;;;14.20;8.43;;;;;;;1.13;76.69;95002.94;6215889;23;20221;-86
2023/03/13 03:40:05;;;;;;;15.07;8.80;;;;;;;1.06;77.01;95001.16;6214088;23;20162;-79
2023/03/13 03:42:32;;;;;;;17.63;8.60;;;;;;;1.09;77.32;95008.53;6213671;23;20574;-79
2023/03/13 03:44:59;;;;;;;16.07;9.33;;;;;;;1.06;77.24;95027.53;6213316;23;20512;-79
2023/03/13 03:47:26;;;;;;;15.73;9.20;;;;;;;1.09;77.49;95040.03;6214263;23;20170;-80
2023/03/13 03:49:53;;;;;;;14.20;8.90;;;;;;;1.15;76.62;95033.50;6213140;23;20162;-78
2023/03/13 03:52:21;;;;;;;16.80;9.03;;;;;;;1.03;77.62;95040.63;6213263;23;20585;-80
2023/03/13 03:54:47;;;;;;;15.50;8.77;;;;;;;1.00;77.18;95032.44;6213189;23;20177;-80
2023/03/13 03:57:14;;;;;;;16.90;8.70;;;;;;;0.94;77.63;95030.47;6212988;23;20625;-79
2023/03/13 03:59:41;;;;;;;14.77;9.27;;;;;;;0.92;77.91;95033.22;6214775;23;20198;-80
2023/03/13 04:02:08;;;;;;;15.60;9.03;;;;;;;0.97;77.67;95046.34;6211768;23;20174;-79
2023/03/13 04:04:35;;;;;;;18.70;11.07;;;;;;;0.96;77.43;95044.72;6212969;23;20180;-80
2023/03/13 04:07:02;;;;;;;25.30;11.20;;;;;;;0.98;77.27;95045.38;6213122;23;20240;-79
2023/03/13 04:09:31;;;;;;;23.17;12.97;;;;;;;0.85;77.97;95042.41;6213341;23;20177;-80
2023/03/13 04:11:57;;;;;;;21.20;12.40;;;;;;;0.88;77.78;95057.47;6212678;23;20204;-79
2023/03/13 04:14:24;;;;;;;19.77;13.13;;;;;;;0.82;78.24;95052.94;6213206;23;20172;-80
2023/03/13 04:16:51;;;;;;;18.67;12.10;;;;;;;0.94;78.53;95064.56;6211814;23;20170;-81
2023/03/13 04:19:18;;;;;;;23.70;14.27;;;;;;;0.89;78.41;95069.31;6212611;23;20177;-79
2023/03/13 04:21:45;;;;;;;17.77;11.73;;;;;;;0.95;79.36;95068.69;6212602;23;20633;-79
2023/03/13 04:24:12;;;;;;;17.60;11.20;;;;;;;0.95;78.86;95062.81;6212942;23;20176;-79
2023/03/13 04:26:40;;;;;;;16.10;10.23;;;;;;;1.01;78.86;95072.44;6212622;23;20894;-79
2023/03/13 04:29:07;;;;;;;19.77;9.97;;;;;;;1.03;78.17;95076.44;6212885;23;20533;-78
2023/03/13 04:31:33;;;;;;;18.63;11.33;;;;;;;0.95;79.04;95075.59;6212346;23;20203;-80
2023/03/13 04:34:00;;;;;;;17.60;10.10;;;;;;;0.96;78.53;95087.41;6214991;23;20170;-78
2023/03/13 04:36:27;;;;;;;17.37;10.87;;;;;;;0.93;79.45;95092.81;6212385;23;20385;-79
2023/03/13 04:38:54;;;;;;;19.20;11.40;;;;;;;0.85;79.30;95106.34;6212394;23;20233;-80
2023/03/13 04:41:21;;;;;;;19.60;12.10;;;;;;;0.88;79.41;95105.25;6212472;23;20613;-80
2023/03/13 04:43:49;;;;;;;19.83;11.77;;;;;;;0.88;80.01;95106.06;6212299;23;20177;-80
2023/03/13 04:46:15;;;;;;;22.50;12.40;;;;;;;0.75;79.93;95095.38;6212286;23;20165;-78
2023/03/13 04:48:42;;;;;;;24.27;12.93;;;;;;;0.74;80.05;95101.47;6212523;23;20487;-79
2023/03/13 04:51:09;;;;;;;25.93;13.40;;;;;;;0.83;80.33;95110.81;6212020;23;20526;-79
2023/03/13 04:53:36;;;;;;;24.27;13.03;;;;;;;0.71;80.23;95106.06;6214135;23;20170;-79
2023/03/13 04:56:03;;;;;;;28.53;14.00;;;;;;;0.74;79.95;95111.72;6212841;23;20173;-78
2023/03/13 04:58:30;;;;;;;28.43;16.37;;;;;;;0.69;80.64;95111.34;6211898;23;20206;-79
2023/03/13 05:00:58;;;;;;;36.23;18.20;;;;;;;0.67;80.69;95117.53;6212506;23;20174;-79
2023/03/13 05:03:25;;;;;;;33.53;18.73;;;;;;;0.64;80.97;95115.25;6212305;23;20227;-79
2023/03/13 05:05:52;;;;;;;41.43;20.13;;;;;;;0.72;80.58;95110.25;6211548;23;20170;-79
2023/03/13 05:08:19;;;;;;;39.73;19.77;;;;;;;0.80;79.30;95103.44;6211943;23;20192;-80
2023/03/13 05:10:47;;;;;;;39.30;19.43;;;;;;;0.74;80.19;95103.22;6211992;23;20184;-79
2023/03/13 05:13:14;;;;;;;34.20;17.37;;;;;;;0.70;79.95;95119.78;6212748;23;20193;-79
2023/03/13 05:15:41;;;;;;;42.07;21.97;;;;;;;0.67;80.30;95125.19;6211072;23;20180;-83
2023/03/13 05:18:09;;;;;;;46.47;24.43;;;;;;;0.75;81.44;95131.19;6212206;23;20166;-80
2023/03/13 05:20:35;;;;;;;50.73;26.50;;;;;;;0.75;82.17;95130.41;6211929;23;20505;-79
2023/03/13 05:23:02;;;;;;;57.33;27.20;;;;;;;0.63;82.52;95114.50;6211985;23;20168;-81
2023/03/13 05:25:29;;;;;;;62.93;29.00;;;;;;;0.88;82.14;95133.41;6212393;23;20168;-81
2023/03/13 05:27:56;;;;;;;49.43;24.30;;;;;;;0.93;81.58;95142.22;6212866;23;20173;-81
2023/03/13 05:30:23;;;;;;;34.10;19.87;;;;;;;0.94;80.69;95145.59;6212843;23;20488;-81
2023/03/13 05:32:50;;;;;;;33.83;19.73;;;;;;;1.04;79.93;95147.13;6214866;23;20304;-81
2023/03/13 05:35:18;;;;;;;35.80;17.47;;;;;;;1.05;78.51;95145.38;6212904;23;20163;-81
2023/03/13 05:37:46;;;;;;;31.17;15.27;;;;;;;1.01;78.67;95146.63;6211999;23;20166;-81
2023/03/13 05:40:15;;;;;;;29.97;15.37;;;;;;;0.97;78.66;95142.75;6211521;23;20518;-81
2023/03/13 05:42:42;;;;;;;30.47;14.90;;;;;;;1.03;79.19;95142.97;6211749;23;20697;-80
2023/03/13 05:45:10;;;;;;;25.50;14.53;;;;;;;1.08;78.85;95151.00;6211808;23;20250;-82
2023/03/13 05:47:38;;;;;;;25.73;13.80;;;;;;;1.09;78.99;95155.19;6212051;23;20486;-81
2023/03/13 05:50:06;;;;;;;22.30;14.03;;;;;;;1.11;78.21;95160.94;6212474;23;20177;-81
2023/03/13 05:52:35;;;;;;;22.93;14.07;;;;;;;1.17;77.82;95163.84;6212004;23;20205;-81
2023/03/13 05:55:02;;;;;;;23.93;13.83;;;;;;;1.19;77.56;95167.06;6212139;23;20178;-81
2023/03/13 05:57:28;;;;;;;20.50;13.50;;;;;;;1.24;77.58;95159.75;6212955;23;20188;-82
2023/03/13 05:59:56;;;;;;;28.33;14.23;;;;;;;1.20;77.64;95159.25;6214462;23;20194;-81
2023/03/13 06:02:23;;;;;;;25.77;14.43;;;;;;;1.30;77.87;95175.31;6210446;23;20181;-80
2023/03/13 06:04:50;;;;;;;21.63;13.63;;;;;;;1.31;78.23;95183.81;6211612;23;20166;-82
2023/03/13 06:07:17;;;;;;;23.50;13.03;;;;;;;1.36;78.08;95179.03;6211710;23;20174;-83
2023/03/13 06:09:45;;;;;;;24.00;13.07;;;;;;;1.41;76.63;95176.84;6208918;23;20576;-80
2023/03/13 06:12:12;;;;;;;22.13;11.83;;;;;;;1.44;75.46;95171.44;6211993;23;20190;-81
2023/03/13 06:14:39;;;;;;;25.27;12.00;;;;;;;1.50;74.88;95165.72;6212071;23;20227;-80
2023/03/13 06:17:06;;;;;;;23.10;11.53;;;;;;;1.50;74.95;95170.84;6212237;23;20169;-81
2023/03/13 06:19:33;;;;;;;23.13;12.23;;;;;;;1.38;75.08;95172.84;6213868;23;20173;-81
2023/03/13 06:22:00;;;;;;;22.40;12.83;;;;;;;1.41;74.52;95171.72;6211522;23;20623;-82
2023/03/13 06:24:27;;;;;;;24.83;13.77;;;;;;;1.41;73.77;95167.41;6211885;23;20167;-81
2023/03/13 06:26:55;;;;;;;22.27;13.07;;;;;;;1.43;74.03;95177.50;6212968;23;20628;-81
2023/03/13 06:29:23;;;;;;;21.10;12.63;;;;;;;1.49;73.59;95164.91;6213728;23;20248;-81
2023/03/13 06:31:50;;;;;;;24.93;14.47;;;;;;;1.62;73.29;95177.28;6214010;23;20280;-81
2023/03/13 06:34:18;;;;;;;23.67;14.17;;;;;;;1.47;73.51;95140.41;6213124;23;20173;-82
2023/03/13 06:36:45;;;;;;;26.53;15.30;;;;;;;1.75;71.76;95157.22;6212736;23;20199;-81
2023/03/13 06:39:12;;;;;;;19.27;12.20;;;;;;;1.68;70.20;95154.44;6211323;23;20197;-81
2023/03/13 06:41:39;;;;;;;22.37;12.33;;;;;;;1.55;71.21;95159.19;6213889;23;20181;-85
2023/03/13 06:44:07;;;;;;;22.20;11.73;;;;;;;1.61;72.13;95170.59;6217822;23;20236;-86
2023/03/13 06:46:34;;;;;;;22.03;12.20;;;;;;;1.65;73.02;95179.56;6214447;23;20175;-85
2023/03/13 06:49:03;;;;;;;22.53;12.90;;;;;;;1.73;70.14;95164.25;6214287;23;20244;-87
2023/03/13 06:51:30;;;;;;;24.17;13.77;;;;;;;1.73;70.05;95160.91;6213836;23;20163;-86
2023/03/13 06:53:57;;;;;;;22.00;12.53;;;;;;;1.86;69.94;95174.91;6214136;23;20201;-86
2023/03/13 06:56:24;;;;;;;18.93;12.47;;;;;;;1.94;69.12;95171.56;6214552;23;20170;-86
2023/03/13 06:58:51;;;;;;;26.33;13.13;;;;;;;2.02;69.97;95172.41;6214191;23;20512;-85
2023/03/13 07:01:19;;;;;;;23.23;14.30;;;;;;;2.12;69.26;95174.84;6213657;23;20192;-86
2023/03/13 07:03:47;;;;;;;25.97;14.80;;;;;;;2.15;68.07;95162.53;6213709;23;20664;-84
2023/03/13 07:06:14;;;;;;;23.13;13.63;;;;;;;2.22;67.37;95165.31;6214108;23;20177;-85
2023/03/13 07:08:42;;;;;;;20.07;12.00;;;;;;;2.22;67.73;95166.09;6213569;23;20174;-83
2023/03/13 07:11:11;;;;;;;20.63;12.20;;;;;;;2.02;68.69;95151.13;6213880;23;20173;-84
2023/03/13 07:13:40;;;;;;;20.23;12.10;;;;;;;1.99;68.44;95162.47;6218446;23;20268;-84
2023/03/13 07:16:09;;;;;;;20.87;11.77;;;;;;;2.10;68.96;95167.34;6214096;23;20170;-84
2023/03/13 07:18:40;;;;;;;21.33;11.90;;;;;;;2.12;69.27;95162.84;6213995;23;20162;-85
2023/03/13 07:21:09;;;;;;;15.77;10.73;;;;;;;2.18;68.07;95158.88;6213438;23;20166;-83
2023/03/13 07:23:36;;;;;;;23.20;12.07;;;;;;;2.18;68.56;95149.41;6214245;23;20163;-83
2023/03/13 07:26:06;;;;;;;18.43;11.57;;;;;;;2.28;67.81;95155.22;6214221;23;20176;-86
2023/03/13 07:28:33;;;;;;;19.53;11.87;;;;;;;2.37;69.11;95156.03;6214481;23;20181;-86
2023/03/13 07:31:04;;;;;;;19.80;12.50;;;;;;;2.49;69.08;95151.44;6213491;23;20173;-86
2023/03/13 07:33:32;;;;;;;20.60;12.33;;;;;;;2.64;67.76;95152.44;6213293;23;20190;-81
2023/03/13 07:36:00;;;;;;;22.03;13.23;;;;;;;2.65;67.65;95156.63;6213253;23;20245;-82
2023/03/13 07:38:27;;;;;;;23.03;13.13;;;;;;;2.73;66.06;95159.19;6213201;23;20228;-82
2023/03/13 07:40:55;;;;;;;20.03;12.03;;;;;;;2.74;65.32;95153.13;6214743;23;20166;-82
2023/03/13 07:43:24;;;;;;;20.03;12.33;;;;;;;2.81;64.96;95156.63;6212861;23;20163;-82
2023/03/13 07:45:52;;;;;;;24.57;13.40;;;;;;;2.84;66.17;95164.84;6213245;23;20170;-81
2023/03/13 07:48:20;;;;;;;21.13;13.60;;;;;;;2.90;68.98;95162.59;6213412;23;20174;-83
2023/03/13 07:50:47;;;;;;;23.90;13.73;;;;;;;2.71;68.31;95120.84;6212870;23;20189;-82
2023/03/13 07:53:20;;;;;;;22.73;13.63;;;;;;;3.11;66.99;95155.25;6212561;23;20194;-81
2023/03/13 07:55:59;;;;;;;21.33;13.00;;;;;;;3.14;64.24;95160.06;6212147;23;20571;-83
2023/03/13 07:58:28;;;;;;;24.70;13.47;;;;;;;3.10;63.88;95149.28;6202868;23;20202;-82
2023/03/13 08:00:55;;;;;;;22.23;13.30;;;;;;;3.11;63.32;95150.91;6211712;23;20656;-83
2023/03/13 08:03:22;;;;;;;23.57;13.77;;;;;;;3.11;64.07;95148.34;6213716;23;20171;-83
2023/03/13 08:05:58;;;;;;;24.10;13.70;;;;;;;3.15;62.75;95141.91;6212875;23;20213;-83
2023/03/13 08:08:26;;;;;;;22.83;13.67;;;;;;;3.14;65.24;95149.78;6212891;23;20162;-80
2023/03/13 08:10:53;;;;;;;22.57;14.37;;;;;;;3.18;64.39;95131.31;6212688;23;20166;-81
2023/03/13 08:13:20;;;;;;;23.93;13.70;;;;;;;3.35;64.47;95137.25;6212940;23;20256;-80
2023/03/13 08:15:47;;;;;;;24.07;13.03;;;;;;;3.52;63.75;95141.41;6212824;23;20173;-82
2023/03/13 08:18:13;;;;;;;22.23;12.83;;;;;;;3.62;61.76;95151.50;6215725;23;20170;-81
2023/03/13 08:20:40;;;;;;;20.03;12.73;;;;;;;3.69;62.45;95142.19;6213508;23;20641;-81
2023/03/13 08:23:07;;;;;;;24.00;13.70;;;;;;;3.80;60.97;95145.22;6213046;23;20625;-81
2023/03/13 08:25:35;;;;;;;20.67;13.80;;;;;;;3.91;60.75;95147.44;6212957;23;20181;-81
2023/03/13 08:28:02;;;;;;;23.53;12.97;;;;;;;3.95;59.92;95150.50;6212957;23;20178;-77
2023/03/13 08:30:29;;;;;;;22.37;13.10;;;;;;;4.10;58.98;95156.53;6213102;23;20574;-78
2023/03/13 08:32:56;;;;;;;23.50;12.90;;;;;;;4.01;58.79;95152.41;6211074;23;20197;-77
2023/03/13 08:35:22;;;;;;;21.57;12.87;;;;;;;4.04;58.53;95151.28;6210891;23;20198;-77
2023/03/13 08:37:49;;;;;;;20.67;12.00;;;;;;;4.17;59.05;95156.69;6211391;23;20352;-77
2023/03/13 08:40:16;;;;;;;17.77;11.60;;;;;;;4.22;59.63;95156.97;6211786;23;20265;-78
2023/03/13 08:42:44;;;;;;;20.53;12.13;;;;;;;4.38;58.86;95156.94;6212390;23;20189;-79
2023/03/13 08:45:11;;;;;;;20.13;12.50;;;;;;;4.55;57.91;95153.31;6212218;23;20191;-78
2023/03/13 08:47:38;;;;;;;21.60;12.10;;;;;;;4.66;58.33;95150.34;6211992;23;20270;-79
2023/03/13 08:50:06;;;;;;;20.13;11.80;;;;;;;4.80;56.93;95151.38;6213090;23;20172;-78
2023/03/13 08:52:33;;;;;;;18.23;12.43;;;;;;;4.84;57.04;95143.19;6211911;23;20164;-78
2023/03/13 08:54:59;;;;;;;21.47;13.73;;;;;;;4.93;56.98;95146.50;6211700;23;20638;-79
2023/03/13 08:57:26;;;;;;;18.73;12.73;;;;;;;5.19;57.03;95152.13;6211795;23;20893;-78
2023/03/13 08:59:54;;;;;;;20.27;11.97;;;;;;;5.32;55.69;95152.31;6211732;23;20219;-79
2023/03/13 09:02:21;;;;;;;19.50;12.73;;;;;;;5.51;54.94;95145.91;6212294;23;20165;-78
2023/03/13 09:04:48;;;;;;;21.23;14.03;;;;;;;5.72;54.80;95161.47;6209177;23;20172;-82
2023/03/13 09:07:18;;;;;;;24.83;14.10;;;;;;;5.55;53.47;95104.13;6207673;23;20177;-80
2023/03/13 09:09:45;;;;;;;22.47;13.73;;;;;;;5.94;52.68;95165.00;6212670;23;20558;-83
2023/03/13 09:12:13;;;;;;;17.97;12.03;;;;;;;5.86;53.31;95126.41;6211692;23;20165;-80
2023/03/13 09:14:40;;;;;;;21.57;12.83;;;;;;;6.31;52.12;95152.03;6213237;23;20199;-86
2023/03/13 09:17:11;;;;;;;19.80;12.63;;;;;;;6.33;51.25;95108.75;6213458;23;20597;-85
2023/03/13 09:19:38;;;;;;;18.13;12.83;;;;;;;6.58;50.68;95119.59;6212829;23;20165;-85
2023/03/13 09:22:06;;;;;;;19.97;13.20;;;;;;;6.89;50.20;95112.38;6212979;23;20173;-88
2023/03/13 09:24:32;;;;;;;21.87;13.03;;;;;;;7.38;49.64;95148.63;6213281;23;20169;-85
2023/03/13 09:26:59;;;;;;;19.83;12.70;;;;;;;7.69;48.75;95145.66;6213574;23;20173;-86
2023/03/13 09:29:26;;;;;;;23.33;13.17;;;;;;;7.73;48.57;95146.91;6212571;23;20228;-88
2023/03/13 09:31:53;;;;;;;18.07;12.07;;;;;;;8.02;48.11;95144.91;6217900;23;20170;-88
2023/03/13 09:34:24;;;;;;;20.20;11.57;;;;;;;8.51;47.43;95156.97;6217974;23;20285;-88
2023/03/13 09:36:51;;;;;;;17.23;10.77;;;;;;;8.69;46.70;95148.66;6213290;23;20169;-88
2023/03/13 09:39:24;;;;;;;18.40;11.03;;;;;;;8.93;46.64;95143.75;6213254;23;20232;-88
2023/03/13 09:41:59;;;;;;;20.23;11.43;;;;;;;9.21;45.01;95148.78;6212928;23;20154;-85
2023/03/13 09:44:29;;;;;;;18.60;11.27;;;;;;;9.40;44.75;95142.84;6213168;23;20154;-86
2023/03/13 09:47:03;;;;;;;20.80;11.60;;;;;;;9.62;43.98;95138.25;6212856;23;20157;-85
2023/03/13 09:49:35;;;;;;;19.80;11.00;;;;;;;9.74;42.78;95141.06;6213156;23;20162;-87
2023/03/13 09:52:16;;;;;;;18.33;11.93;;;;;;;9.87;42.27;95143.66;6213354;23;20197;-87
2023/03/13 09:54:49;;;;;;;16.23;11.00;;;;;;;10.02;42.48;95139.84;6212981;23;20181;-87
2023/03/13 09:57:23;;;;;;;14.83;11.17;;;;;;;10.44;42.71;95138.59;6216916;23;20225;-85
2023/03/13 09:59:56;;;;;;;16.53;10.80;;;;;;;10.82;41.30;95134.22;6213459;23;20197;-88
2023/03/13 10:02:37;;;;;;;17.73;11.47;;;;;;;11.03;41.04;95143.50;6217204;23;20609;-87
2023/03/13 10:05:13;;;;;;;17.23;11.27;;;;;;;11.15;39.97;95117.63;6218039;23;20158;-87
2023/03/13 10:07:40;;;;;;;18.30;11.97;;;;;;;11.56;40.12;95141.38;6215511;23;20162;-87
2023/03/13 10:10:13;;;;;;;18.77;12.40;;;;;;;11.89;39.52;95141.13;6215235;23;20166;-86
2023/03/13 10:12:45;;;;;;;17.50;11.50;;;;;;;12.08;38.51;95132.38;6215652;23;20162;-88
2023/03/13 10:15:33;;;;;;;18.67;11.93;;;;;;;12.07;38.20;95120.34;6216887;23;20159;-89
2023/03/13 10:18:10;;;;;;;15.07;11.17;;;;;;;12.40;37.62;95123.41;6216913;23;20158;-88
2023/03/13 10:20:40;;;;;;;16.63;11.53;;;;;;;12.40;37.00;95099.97;6214853;23;20162;-87
2023/03/13 10:23:15;;;;;;;17.27;12.17;;;;;;;12.69;37.25;95110.66;6218369;23;20606;-83
2023/03/13 10:25:42;;;;;;;18.43;11.73;;;;;;;12.83;40.38;95106.84;6214113;23;20163;-83
2023/03/13 10:28:12;;;;;;;17.27;11.33;;;;;;;12.67;36.30;95107.47;6214514;23;20171;-85
2023/03/13 10:30:46;;;;;;;15.97;11.37;;;;;;;12.56;36.71;95095.16;6213862;23;20605;-85
2023/03/13 10:33:22;;;;;;;16.33;11.80;;;;;;;12.50;36.01;95102.84;6214079;23;20284;-86
2023/03/13 10:36:02;;;;;;;18.63;12.47;;;;;;;12.52;36.47;95092.22;6214325;23;20158;-85
2023/03/13 10:38:29;;;;;;;17.57;12.00;;;;;;;12.63;36.32;95094.06;6214601;23;20264;-86
2023/03/13 10:41:01;;;;;;;17.67;11.67;;;;;;;13.16;36.55;95088.97;6214464;23;20166;-85
2023/03/13 10:43:29;;;;;;;18.03;11.60;;;;;;;13.54;35.66;95081.56;6214710;23;20212;-85
2023/03/13 10:45:56;;;;;;;15.97;11.97;;;;;;;13.83;34.51;95082.50;6215272;23;20174;-84
2023/03/13 10:48:24;;;;;;;15.83;11.67;;;;;;;13.96;34.37;95071.03;6216599;23;20625;-84
2023/03/13 10:50:56;;;;;;;19.93;12.27;;;;;;;14.18;34.36;95077.25;6216355;23;20170;-85
2023/03/13 10:53:36;;;;;;;20.30;12.70;;;;;;;14.47;33.97;95063.25;6218531;23;20185;-84
2023/03/13 10:56:10;;;;;;;20.10;12.20;;;;;;;14.66;33.75;95076.97;6230282;23;20154;-84
2023/03/13 10:58:42;;;;;;;18.43;12.23;;;;;;;14.71;33.73;95063.97;6228608;23;20205;-82
2023/03/13 11:01:21;;;;;;;20.13;11.97;;;;;;;14.86;33.76;95060.84;6232072;23;20197;-85
2023/03/13 11:03:49;;;;;;;19.80;13.07;;;;;;;15.27;33.92;95044.78;6228646;23;20154;-87
2023/03/13 11:06:30;;;;;;;17.03;12.20;;;;;;;15.72;33.03;95042.94;6225148;23;20177;-88
2023/03/13 11:09:11;;;;;;;19.77;12.70;;;;;;;16.12;31.53;95055.03;6230594;23;20170;-87
2023/03/13 11:11:50;;;;;;;19.80;12.87;;;;;;;16.20;31.37;95049.34;6229598;23;20166;-86
2023/03/13 11:14:22;;;;;;;25.43;12.60;;;;;;;16.46;31.44;95044.19;6227608;23;20182;-88
2023/03/13 11:16:50;;;;;;;17.97;12.97;;;;;;;16.45;31.90;95039.97;6224915;23;20163;-90
2023/03/13 11:19:46;;;;;;;19.70;12.53;;;;;;;16.88;30.54;95041.78;6217900;23;20200;-92
2023/03/13 11:22:29;;;;;;;21.70;13.37;;;;;;;17.01;30.68;95048.50;6205342;23;20166;-83
2023/03/13 11:25:16;;;;;;;18.33;13.00;;;;;;;17.19;30.22;95045.53;6215139;23;20154;-86
2023/03/13 11:27:48;;;;;;;22.57;13.20;;;;;;;17.42;29.94;95041.78;6214970;23;20173;-89
2023/03/13 11:30:32;;;;;;;17.43;12.40;;;;;;;17.17;29.65;95036.31;6214066;23;20697;-86
2023/03/13 11:33:02;;;;;;;16.47;12.73;;;;;;;16.95;30.31;95026.66;6214460;23;20559;-87
2023/03/13 11:35:39;;;;;;;25.37;13.43;;;;;;;17.17;30.25;95025.81;6215354;23;20630;-87